sensor_id;sensor_type;location;lat;lon;timestamp;P1;durP1;ratioP1;P2;durP2;ratioP2
57249;SDS011;43102;52.014;-0.680;2022-09-09T00:00:00;6.20;;;3.10;;
57249;SDS011;43102;52.014;-0.680;2022-09-09T00:02:21;6.20;;;3.10;;
57249;SDS011;43102;52.014;-0.680;2022-09-09T00:04:15;6.20;;;3.10;;
57249;SDS011;43102;52.014;-0.680;2022-09-09T00:05:12;6.20;;;3.10;;
57249;SDS011;43102;52.014;-0.680;2022-09-09T00:06:21;6.20;;;3.10;;
57249;SDS011;43102;52.014;-0.680;2022-09-09T00:07:22;6.20;;;3.10;;
57249;SDS011;43102;52.014;-0.680;2022-09-09T00:08:03;6.20;;;3.10;;
57249;SDS011;43102;52.014;-0.680;2022-09-09T00:09:12;6.20;;;3.10;;
57249;SDS011;43102;52.014;-0.680;2022-09-09T00:11:02;6.20;;;3.10;;
57249;SDS011;43102;52.014;-0.680;2022-09-09T00:12:06;6.20;;;3.10;;
57249;SDS011;43102;52.014;-0.680;2022-09-09T00:14:06;5.30;;;3.50;;
57249;SDS011;43102;52.014;-0.680;2022-09-09T00:15:05;5.30;;;3.50;;
57249;SDS011;43102;52.014;-0.680;2022-09-09T00:17:06;5.30;;;3.50;;
57249;SDS011;43102;52.014;-0.680;2022-09-09T00:19:07;5.30;;;3.50;;
57249;SDS011;43102;52.014;-0.680;2022-09-09T00:20:05;5.30;;;3.50;;
57249;SDS011;43102;52.014;-0.680;2022-09-09T00:21:11;5.30;;;3.50;;
57249;SDS011;43102;52.014;-0.680;2022-09-09T00:22:15;5.30;;;3.50;;
57249;SDS011;43102;52.014;-0.680;2022-09-09T00:24:08;5.30;;;3.50;;
57249;SDS011;43102;52.014;-0.680;2022-09-09T00:25:10;5.30;;;3.50;;
57249;SDS011;43102;52.014;-0.680;2022-09-09T00:27:06;5.30;;;3.50;;
57249;SDS011;43102;52.014;-0.680;2022-09-09T00:28:00;5.30;;;3.50;;
57249;SDS011;43102;52.014;-0.680;2022-09-09T00:30:14;5.30;;;3.50;;
57249;SDS011;43102;52.014;-0.680;2022-09-09T00:31:11;5.30;;;3.50;;
57249;SDS011;43102;52.014;-0.680;2022-09-09T00:32:09;5.30;;;3.50;;
57249;SDS011;43102;52.014;-0.680;2022-09-09T00:33:10;5.30;;;3.50;;
57249;SDS011;43102;52.014;-0.680;2022-09-09T00:34:08;5.30;;;3.50;;
57249;SDS011;43102;52.014;-0.680;2022-09-09T00:35:10;5.30;;;3.50;;
57249;SDS011;43102;52.014;-0.680;2022-09-09T00:36:01;5.30;;;3.50;;
57249;SDS011;43102;52.014;-0.680;2022-09-09T00:37:02;5.30;;;3.50;;
57249;SDS011;43102;52.014;-0.680;2022-09-09T00:38:08;5.30;;;3.50;;
57249;SDS011;43102;52.014;-0.680;2022-09-09T00:39:02;5.30;;;3.50;;
57249;SDS011;43102;52.014;-0.680;2022-09-09T00:40:05;5.30;;;3.50;;
57249;SDS011;43102;52.014;-0.680;2022-09-09T00:41:10;5.30;;;3.50;;
57249;SDS011;43102;52.014;-0.680;2022-09-09T00:42:05;5.30;;;3.50;;
57249;SDS011;43102;52.014;-0.680;2022-09-09T00:45:15;5.90;;;3.20;;
57249;SDS011;43102;52.014;-0.680;2022-09-09T00:48:07;5.90;;;3.20;;
57249;SDS011;43102;52.014;-0.680;2022-09-09T00:50:23;5.90;;;3.20;;
57249;SDS011;43102;52.014;-0.680;2022-09-09T00:51:05;5.90;;;3.20;;
57249;SDS011;43102;52.014;-0.680;2022-09-09T00:54:19;5.90;;;3.20;;
57249;SDS011;43102;52.014;-0.680;2022-09-09T00:57:06;5.90;;;3.20;;
57249;SDS011;43102;52.014;-0.680;2022-09-09T00:58:00;5.90;;;3.20;;
57249;SDS011;43102;52.014;-0.680;2022-09-09T01:00:19;5.90;;;3.20;;
57249;SDS011;43102;52.014;-0.680;2022-09-09T01:01:09;5.90;;;3.20;;
57249;SDS011;43102;52.014;-0.680;2022-09-09T01:02:02;5.90;;;3.20;;
57249;SDS011;43102;52.014;-0.680;2022-09-09T01:03:17;5.90;;;3.20;;
57249;SDS011;43102;52.014;-0.680;2022-09-09T01:04:00;5.90;;;3.20;;
57249;SDS011;43102;52.014;-0.680;2022-09-09T01:05:07;5.90;;;3.20;;
57249;SDS011;43102;52.014;-0.680;2022-09-09T01:07:10;5.90;;;3.20;;
57249;SDS011;43102;52.014;-0.680;2022-09-09T01:08:02;5.90;;;3.20;;
57249;SDS011;43102;52.014;-0.680;2022-09-09T01:09:13;5.90;;;3.20;;
57249;SDS011;43102;52.014;-0.680;2022-09-09T01:10:07;5.90;;;3.20;;
57249;SDS011;43102;52.014;-0.680;2022-09-09T01:11:02;5.90;;;3.20;;
57249;SDS011;43102;52.014;-0.680;2022-09-09T01:12:23;5.90;;;3.20;;
57249;SDS011;43102;52.014;-0.680;2022-09-09T01:13:04;5.90;;;3.20;;
57249;SDS011;43102;52.014;-0.680;2022-09-09T01:15:12;5.90;;;3.20;;
57249;SDS011;43102;52.014;-0.680;2022-09-09T01:16:04;5.90;;;3.20;;
57249;SDS011;43102;52.014;-0.680;2022-09-09T01:18:05;5.90;;;3.20;;
57249;SDS011;43102;52.014;-0.680;2022-09-09T01:19:01;5.90;;;3.20;;
57249;SDS011;43102;52.014;-0.680;2022-09-09T01:20:13;5.90;;;3.20;;
57249;SDS011;43102;52.014;-0.680;2022-09-09T01:24:14;5.90;;;3.20;;
57249;SDS011;43102;52.014;-0.680;2022-09-09T01:27:02;5.90;;;3.20;;
57249;SDS011;43102;52.014;-0.680;2022-09-09T01:28:05;5.90;;;3.20;;
57249;SDS011;43102;52.014;-0.680;2022-09-09T01:29:00;5.90;;;3.20;;
57249;SDS011;43102;52.014;-0.680;2022-09-09T01:30:00;5.90;;;3.20;;
57249;SDS011;43102;52.014;-0.680;2022-09-09T01:31:00;5.90;;;3.20;;
57249;SDS011;43102;52.014;-0.680;2022-09-09T01:32:03;5.90;;;3.20;;
57249;SDS011;43102;52.014;-0.680;2022-09-09T01:33:02;5.90;;;3.20;;
57249;SDS011;43102;52.014;-0.680;2022-09-09T01:34:00;5.90;;;3.20;;
57249;SDS011;43102;52.014;-0.680;2022-09-09T01:35:01;5.90;;;3.20;;
57249;SDS011;43102;52.014;-0.680;2022-09-09T01:37:10;5.90;;;3.20;;
57249;SDS011;43102;52.014;-0.680;2022-09-09T01:38:00;5.90;;;3.20;;
57249;SDS011;43102;52.014;-0.680;2022-09-09T01:39:01;5.90;;;3.20;;
57249;SDS011;43102;52.014;-0.680;2022-09-09T01:40:00;5.90;;;3.20;;
57249;SDS011;43102;52.014;-0.680;2022-09-09T01:41:00;5.90;;;3.20;;
57249;SDS011;43102;52.014;-0.680;2022-09-09T01:42:01;5.90;;;3.20;;
57249;SDS011;43102;52.014;-0.680;2022-09-09T01:43:00;8.10;;;3.90;;
57249;SDS011;43102;52.014;-0.680;2022-09-09T01:44:00;8.10;;;3.90;;
57249;SDS011;43102;52.014;-0.680;2022-09-09T01:45:00;8.10;;;3.90;;
57249;SDS011;43102;52.014;-0.680;2022-09-09T01:46:01;8.10;;;3.90;;
57249;SDS011;43102;52.014;-0.680;2022-09-09T01:47:00;8.10;;;3.90;;
57249;SDS011;43102;52.014;-0.680;2022-09-09T01:48:00;8.10;;;3.90;;
57249;SDS011;43102;52.014;-0.680;2022-09-09T01:49:02;8.10;;;3.90;;
57249;SDS011;43102;52.014;-0.680;2022-09-09T01:50:01;8.10;;;3.90;;
57249;SDS011;43102;52.014;-0.680;2022-09-09T01:51:00;8.10;;;3.90;;
57249;SDS011;43102;52.014;-0.680;2022-09-09T01:52:01;8.10;;;3.90;;
57249;SDS011;43102;52.014;-0.680;2022-09-09T01:53:01;8.10;;;3.90;;
57249;SDS011;43102;52.014;-0.680;2022-09-09T01:54:00;8.10;;;3.90;;
57249;SDS011;43102;52.014;-0.680;2022-09-09T01:55:00;8.10;;;3.90;;
57249;SDS011;43102;52.014;-0.680;2022-09-09T01:56:13;8.10;;;3.90;;
57249;SDS011;43102;52.014;-0.680;2022-09-09T01:57:15;8.10;;;3.90;;
57249;SDS011;43102;52.014;-0.680;2022-09-09T02:00:05;8.10;;;3.90;;
57249;SDS011;43102;52.014;-0.680;2022-09-09T02:01:22;8.10;;;3.90;;
57249;SDS011;43102;52.014;-0.680;2022-09-09T02:03:11;8.10;;;3.90;;
57249;SDS011;43102;52.014;-0.680;2022-09-09T02:04:04;8.10;;;3.90;;
57249;SDS011;43102;52.014;-0.680;2022-09-09T02:05:07;8.10;;;3.90;;
57249;SDS011;43102;52.014;-0.680;2022-09-09T02:07:00;8.10;;;3.90;;
57249;SDS011;43102;52.014;-0.680;2022-09-09T02:08:07;8.10;;;3.90;;
57249;SDS011;43102;52.014;-0.680;2022-09-09T02:09:03;8.10;;;3.90;;
57249;SDS011;43102;52.014;-0.680;2022-09-09T02:10:08;8.10;;;3.90;;
57249;SDS011;43102;52.014;-0.680;2022-09-09T02:11:07;8.10;;;3.90;;
57249;SDS011;43102;52.014;-0.680;2022-09-09T02:12:08;8.10;;;3.90;;
57249;SDS011;43102;52.014;-0.680;2022-09-09T02:13:04;6.50;;;3.80;;
57249;SDS011;43102;52.014;-0.680;2022-09-09T02:14:03;6.50;;;3.80;;
57249;SDS011;43102;52.014;-0.680;2022-09-09T02:15:05;6.50;;;3.80;;
57249;SDS011;43102;52.014;-0.680;2022-09-09T02:16:03;6.50;;;3.80;;
57249;SDS011;43102;52.014;-0.680;2022-09-09T02:17:07;6.50;;;3.80;;
57249;SDS011;43102;52.014;-0.680;2022-09-09T02:18:03;6.50;;;3.80;;
57249;SDS011;43102;52.014;-0.680;2022-09-09T02:19:18;6.50;;;3.80;;
57249;SDS011;43102;52.014;-0.680;2022-09-09T02:20:08;6.50;;;3.80;;
57249;SDS011;43102;52.014;-0.680;2022-09-09T02:21:02;6.50;;;3.80;;
57249;SDS011;43102;52.014;-0.680;2022-09-09T02:22:01;6.50;;;3.80;;
57249;SDS011;43102;52.014;-0.680;2022-09-09T02:23:02;6.50;;;3.80;;
57249;SDS011;43102;52.014;-0.680;2022-09-09T02:24:05;6.50;;;3.80;;
57249;SDS011;43102;52.014;-0.680;2022-09-09T02:25:01;6.50;;;3.80;;
57249;SDS011;43102;52.014;-0.680;2022-09-09T02:26:00;6.50;;;3.80;;
57249;SDS011;43102;52.014;-0.680;2022-09-09T02:27:03;6.50;;;3.80;;
57249;SDS011;43102;52.014;-0.680;2022-09-09T02:28:02;6.50;;;3.80;;
57249;SDS011;43102;52.014;-0.680;2022-09-09T02:29:03;6.50;;;3.80;;
57249;SDS011;43102;52.014;-0.680;2022-09-09T02:30:02;6.50;;;3.80;;
57249;SDS011;43102;52.014;-0.680;2022-09-09T02:31:01;6.50;;;3.80;;
57249;SDS011;43102;52.014;-0.680;2022-09-09T02:32:03;6.50;;;3.80;;
57249;SDS011;43102;52.014;-0.680;2022-09-09T02:33:04;6.50;;;3.80;;
57249;SDS011;43102;52.014;-0.680;2022-09-09T02:34:01;6.50;;;3.80;;
57249;SDS011;43102;52.014;-0.680;2022-09-09T02:35:05;6.50;;;3.80;;
57249;SDS011;43102;52.014;-0.680;2022-09-09T02:36:03;6.50;;;3.80;;
57249;SDS011;43102;52.014;-0.680;2022-09-09T02:37:01;6.50;;;3.80;;
57249;SDS011;43102;52.014;-0.680;2022-09-09T02:38:04;6.50;;;3.80;;
57249;SDS011;43102;52.014;-0.680;2022-09-09T02:39:00;6.50;;;3.80;;
57249;SDS011;43102;52.014;-0.680;2022-09-09T02:40:00;6.50;;;3.80;;
57249;SDS011;43102;52.014;-0.680;2022-09-09T02:41:01;6.50;;;3.80;;
57249;SDS011;43102;52.014;-0.680;2022-09-09T02:42:00;6.50;;;3.80;;
57249;SDS011;43102;52.014;-0.680;2022-09-09T02:43:00;8.70;;;4.40;;
57249;SDS011;43102;52.014;-0.680;2022-09-09T02:44:00;8.70;;;4.40;;
57249;SDS011;43102;52.014;-0.680;2022-09-09T02:45:00;8.70;;;4.40;;
57249;SDS011;43102;52.014;-0.680;2022-09-09T02:46:17;8.70;;;4.40;;
57249;SDS011;43102;52.014;-0.680;2022-09-09T02:47:05;8.70;;;4.40;;
57249;SDS011;43102;52.014;-0.680;2022-09-09T02:49:09;8.70;;;4.40;;
57249;SDS011;43102;52.014;-0.680;2022-09-09T02:50:19;8.70;;;4.40;;
57249;SDS011;43102;52.014;-0.680;2022-09-09T02:51:04;8.70;;;4.40;;
57249;SDS011;43102;52.014;-0.680;2022-09-09T02:52:06;8.70;;;4.40;;
57249;SDS011;43102;52.014;-0.680;2022-09-09T02:53:24;8.70;;;4.40;;
57249;SDS011;43102;52.014;-0.680;2022-09-09T02:55:09;8.70;;;4.40;;
57249;SDS011;43102;52.014;-0.680;2022-09-09T02:56:09;8.70;;;4.40;;
57249;SDS011;43102;52.014;-0.680;2022-09-09T02:57:11;8.70;;;4.40;;
57249;SDS011;43102;52.014;-0.680;2022-09-09T02:58:02;8.70;;;4.40;;
57249;SDS011;43102;52.014;-0.680;2022-09-09T02:59:03;8.70;;;4.40;;
57249;SDS011;43102;52.014;-0.680;2022-09-09T03:00:01;8.70;;;4.40;;
57249;SDS011;43102;52.014;-0.680;2022-09-09T03:01:02;8.70;;;4.40;;
57249;SDS011;43102;52.014;-0.680;2022-09-09T03:02:01;8.70;;;4.40;;
57249;SDS011;43102;52.014;-0.680;2022-09-09T03:03:00;8.70;;;4.40;;
57249;SDS011;43102;52.014;-0.680;2022-09-09T03:04:00;8.70;;;4.40;;
57249;SDS011;43102;52.014;-0.680;2022-09-09T03:05:00;8.70;;;4.40;;
57249;SDS011;43102;52.014;-0.680;2022-09-09T03:06:00;8.70;;;4.40;;
57249;SDS011;43102;52.014;-0.680;2022-09-09T03:07:00;8.70;;;4.40;;
57249;SDS011;43102;52.014;-0.680;2022-09-09T03:08:00;8.70;;;4.40;;
57249;SDS011;43102;52.014;-0.680;2022-09-09T03:09:01;8.70;;;4.40;;
57249;SDS011;43102;52.014;-0.680;2022-09-09T03:10:00;8.70;;;4.40;;
57249;SDS011;43102;52.014;-0.680;2022-09-09T03:11:01;8.70;;;4.40;;
57249;SDS011;43102;52.014;-0.680;2022-09-09T03:12:00;8.70;;;4.40;;
57249;SDS011;43102;52.014;-0.680;2022-09-09T03:13:00;10.50;;;5.10;;
57249;SDS011;43102;52.014;-0.680;2022-09-09T03:14:00;10.50;;;5.10;;
57249;SDS011;43102;52.014;-0.680;2022-09-09T03:15:00;10.50;;;5.10;;
57249;SDS011;43102;52.014;-0.680;2022-09-09T03:16:00;10.50;;;5.10;;
57249;SDS011;43102;52.014;-0.680;2022-09-09T03:17:02;10.50;;;5.10;;
57249;SDS011;43102;52.014;-0.680;2022-09-09T03:18:00;10.50;;;5.10;;
57249;SDS011;43102;52.014;-0.680;2022-09-09T03:19:01;10.50;;;5.10;;
57249;SDS011;43102;52.014;-0.680;2022-09-09T03:20:01;10.50;;;5.10;;
57249;SDS011;43102;52.014;-0.680;2022-09-09T03:21:01;10.50;;;5.10;;
57249;SDS011;43102;52.014;-0.680;2022-09-09T03:22:00;10.50;;;5.10;;
57249;SDS011;43102;52.014;-0.680;2022-09-09T03:23:01;10.50;;;5.10;;
57249;SDS011;43102;52.014;-0.680;2022-09-09T03:24:03;10.50;;;5.10;;
57249;SDS011;43102;52.014;-0.680;2022-09-09T03:25:00;10.50;;;5.10;;
57249;SDS011;43102;52.014;-0.680;2022-09-09T03:26:00;10.50;;;5.10;;
57249;SDS011;43102;52.014;-0.680;2022-09-09T03:27:00;10.50;;;5.10;;
57249;SDS011;43102;52.014;-0.680;2022-09-09T03:28:00;10.50;;;5.10;;
57249;SDS011;43102;52.014;-0.680;2022-09-09T03:29:00;10.50;;;5.10;;
57249;SDS011;43102;52.014;-0.680;2022-09-09T03:30:03;10.50;;;5.10;;
57249;SDS011;43102;52.014;-0.680;2022-09-09T03:31:01;10.50;;;5.10;;
57249;SDS011;43102;52.014;-0.680;2022-09-09T03:32:00;10.50;;;5.10;;
57249;SDS011;43102;52.014;-0.680;2022-09-09T03:33:00;10.50;;;5.10;;
57249;SDS011;43102;52.014;-0.680;2022-09-09T03:34:00;10.50;;;5.10;;
57249;SDS011;43102;52.014;-0.680;2022-09-09T03:35:00;10.50;;;5.10;;
57249;SDS011;43102;52.014;-0.680;2022-09-09T03:36:00;10.50;;;5.10;;
57249;SDS011;43102;52.014;-0.680;2022-09-09T03:37:00;10.50;;;5.10;;
57249;SDS011;43102;52.014;-0.680;2022-09-09T03:38:00;10.50;;;5.10;;
57249;SDS011;43102;52.014;-0.680;2022-09-09T03:39:01;10.50;;;5.10;;
57249;SDS011;43102;52.014;-0.680;2022-09-09T03:40:00;10.50;;;5.10;;
57249;SDS011;43102;52.014;-0.680;2022-09-09T03:41:01;10.50;;;5.10;;
57249;SDS011;43102;52.014;-0.680;2022-09-09T03:42:03;10.50;;;5.10;;
57249;SDS011;43102;52.014;-0.680;2022-09-09T03:43:00;15.40;;;7.60;;
57249;SDS011;43102;52.014;-0.680;2022-09-09T03:44:00;15.40;;;7.60;;
57249;SDS011;43102;52.014;-0.680;2022-09-09T03:45:00;15.40;;;7.60;;
57249;SDS011;43102;52.014;-0.680;2022-09-09T03:46:00;15.40;;;7.60;;
57249;SDS011;43102;52.014;-0.680;2022-09-09T03:47:00;15.40;;;7.60;;
57249;SDS011;43102;52.014;-0.680;2022-09-09T03:48:00;15.40;;;7.60;;
57249;SDS011;43102;52.014;-0.680;2022-09-09T03:49:01;15.40;;;7.60;;
57249;SDS011;43102;52.014;-0.680;2022-09-09T03:50:00;15.40;;;7.60;;
57249;SDS011;43102;52.014;-0.680;2022-09-09T03:51:01;15.40;;;7.60;;
57249;SDS011;43102;52.014;-0.680;2022-09-09T03:52:00;15.40;;;7.60;;
57249;SDS011;43102;52.014;-0.680;2022-09-09T03:53:00;15.40;;;7.60;;
57249;SDS011;43102;52.014;-0.680;2022-09-09T03:54:00;15.40;;;7.60;;
57249;SDS011;43102;52.014;-0.680;2022-09-09T03:55:01;15.40;;;7.60;;
57249;SDS011;43102;52.014;-0.680;2022-09-09T03:56:00;15.40;;;7.60;;
57249;SDS011;43102;52.014;-0.680;2022-09-09T03:57:00;15.40;;;7.60;;
57249;SDS011;43102;52.014;-0.680;2022-09-09T03:58:00;15.40;;;7.60;;
57249;SDS011;43102;52.014;-0.680;2022-09-09T03:59:00;15.40;;;7.60;;
57249;SDS011;43102;52.014;-0.680;2022-09-09T04:00:03;15.40;;;7.60;;
57249;SDS011;43102;52.014;-0.680;2022-09-09T04:02:01;15.40;;;7.60;;
57249;SDS011;43102;52.014;-0.680;2022-09-09T04:03:00;15.40;;;7.60;;
57249;SDS011;43102;52.014;-0.680;2022-09-09T04:04:02;15.40;;;7.60;;
57249;SDS011;43102;52.014;-0.680;2022-09-09T04:05:00;15.40;;;7.60;;
57249;SDS011;43102;52.014;-0.680;2022-09-09T04:06:03;15.40;;;7.60;;
57249;SDS011;43102;52.014;-0.680;2022-09-09T04:07:00;15.40;;;7.60;;
57249;SDS011;43102;52.014;-0.680;2022-09-09T04:08:00;15.40;;;7.60;;
57249;SDS011;43102;52.014;-0.680;2022-09-09T04:09:03;15.40;;;7.60;;
57249;SDS011;43102;52.014;-0.680;2022-09-09T04:10:00;15.40;;;7.60;;
57249;SDS011;43102;52.014;-0.680;2022-09-09T04:11:05;15.40;;;7.60;;
57249;SDS011;43102;52.014;-0.680;2022-09-09T04:12:02;15.40;;;7.60;;
57249;SDS011;43102;52.014;-0.680;2022-09-09T04:13:00;11.20;;;7.40;;
57249;SDS011;43102;52.014;-0.680;2022-09-09T04:14:00;11.20;;;7.40;;
57249;SDS011;43102;52.014;-0.680;2022-09-09T04:15:02;11.20;;;7.40;;
57249;SDS011;43102;52.014;-0.680;2022-09-09T04:16:01;11.20;;;7.40;;
57249;SDS011;43102;52.014;-0.680;2022-09-09T04:17:00;11.20;;;7.40;;
57249;SDS011;43102;52.014;-0.680;2022-09-09T04:18:00;11.20;;;7.40;;
57249;SDS011;43102;52.014;-0.680;2022-09-09T04:19:01;11.20;;;7.40;;
57249;SDS011;43102;52.014;-0.680;2022-09-09T04:20:01;11.20;;;7.40;;
57249;SDS011;43102;52.014;-0.680;2022-09-09T04:21:01;11.20;;;7.40;;
57249;SDS011;43102;52.014;-0.680;2022-09-09T04:22:00;11.20;;;7.40;;
57249;SDS011;43102;52.014;-0.680;2022-09-09T04:23:00;11.20;;;7.40;;
57249;SDS011;43102;52.014;-0.680;2022-09-09T04:24:00;11.20;;;7.40;;
57249;SDS011;43102;52.014;-0.680;2022-09-09T04:25:00;11.20;;;7.40;;
57249;SDS011;43102;52.014;-0.680;2022-09-09T04:26:02;11.20;;;7.40;;
57249;SDS011;43102;52.014;-0.680;2022-09-09T04:27:00;11.20;;;7.40;;
57249;SDS011;43102;52.014;-0.680;2022-09-09T04:28:00;11.20;;;7.40;;
57249;SDS011;43102;52.014;-0.680;2022-09-09T04:29:00;11.20;;;7.40;;
57249;SDS011;43102;52.014;-0.680;2022-09-09T04:30:00;11.20;;;7.40;;
57249;SDS011;43102;52.014;-0.680;2022-09-09T04:31:04;11.20;;;7.40;;
57249;SDS011;43102;52.014;-0.680;2022-09-09T04:32:00;11.20;;;7.40;;
57249;SDS011;43102;52.014;-0.680;2022-09-09T04:33:00;11.20;;;7.40;;
57249;SDS011;43102;52.014;-0.680;2022-09-09T04:35:01;11.20;;;7.40;;
57249;SDS011;43102;52.014;-0.680;2022-09-09T04:36:00;11.20;;;7.40;;
57249;SDS011;43102;52.014;-0.680;2022-09-09T04:37:01;11.20;;;7.40;;
57249;SDS011;43102;52.014;-0.680;2022-09-09T04:38:02;11.20;;;7.40;;
57249;SDS011;43102;52.014;-0.680;2022-09-09T04:39:01;11.20;;;7.40;;
57249;SDS011;43102;52.014;-0.680;2022-09-09T04:40:02;11.20;;;7.40;;
57249;SDS011;43102;52.014;-0.680;2022-09-09T04:41:01;11.20;;;7.40;;
57249;SDS011;43102;52.014;-0.680;2022-09-09T04:42:00;11.20;;;7.40;;
57249;SDS011;43102;52.014;-0.680;2022-09-09T04:43:01;13.00;;;8.60;;
57249;SDS011;43102;52.014;-0.680;2022-09-09T04:44:01;13.00;;;8.60;;
57249;SDS011;43102;52.014;-0.680;2022-09-09T04:45:01;13.00;;;8.60;;
57249;SDS011;43102;52.014;-0.680;2022-09-09T04:46:00;13.00;;;8.60;;
57249;SDS011;43102;52.014;-0.680;2022-09-09T04:47:01;13.00;;;8.60;;
57249;SDS011;43102;52.014;-0.680;2022-09-09T04:48:00;13.00;;;8.60;;
57249;SDS011;43102;52.014;-0.680;2022-09-09T04:49:00;13.00;;;8.60;;
57249;SDS011;43102;52.014;-0.680;2022-09-09T04:50:00;13.00;;;8.60;;
57249;SDS011;43102;52.014;-0.680;2022-09-09T04:51:02;13.00;;;8.60;;
57249;SDS011;43102;52.014;-0.680;2022-09-09T04:52:01;13.00;;;8.60;;
57249;SDS011;43102;52.014;-0.680;2022-09-09T04:53:01;13.00;;;8.60;;
57249;SDS011;43102;52.014;-0.680;2022-09-09T04:54:00;13.00;;;8.60;;
57249;SDS011;43102;52.014;-0.680;2022-09-09T04:55:00;13.00;;;8.60;;
57249;SDS011;43102;52.014;-0.680;2022-09-09T04:56:04;13.00;;;8.60;;
57249;SDS011;43102;52.014;-0.680;2022-09-09T04:57:00;13.00;;;8.60;;
57249;SDS011;43102;52.014;-0.680;2022-09-09T04:58:05;13.00;;;8.60;;
57249;SDS011;43102;52.014;-0.680;2022-09-09T04:59:02;13.00;;;8.60;;
57249;SDS011;43102;52.014;-0.680;2022-09-09T05:00:02;13.00;;;8.60;;
57249;SDS011;43102;52.014;-0.680;2022-09-09T05:01:09;13.00;;;8.60;;
57249;SDS011;43102;52.014;-0.680;2022-09-09T05:02:02;13.00;;;8.60;;
57249;SDS011;43102;52.014;-0.680;2022-09-09T05:03:04;13.00;;;8.60;;
57249;SDS011;43102;52.014;-0.680;2022-09-09T05:04:00;13.00;;;8.60;;
57249;SDS011;43102;52.014;-0.680;2022-09-09T05:05:00;13.00;;;8.60;;
57249;SDS011;43102;52.014;-0.680;2022-09-09T05:06:06;13.00;;;8.60;;
57249;SDS011;43102;52.014;-0.680;2022-09-09T05:07:00;13.00;;;8.60;;
57249;SDS011;43102;52.014;-0.680;2022-09-09T05:08:01;13.00;;;8.60;;
57249;SDS011;43102;52.014;-0.680;2022-09-09T05:09:00;13.00;;;8.60;;
57249;SDS011;43102;52.014;-0.680;2022-09-09T05:10:00;13.00;;;8.60;;
57249;SDS011;43102;52.014;-0.680;2022-09-09T05:11:00;13.00;;;8.60;;
57249;SDS011;43102;52.014;-0.680;2022-09-09T05:12:00;13.00;;;8.60;;
57249;SDS011;43102;52.014;-0.680;2022-09-09T05:13:00;10.10;;;8.20;;
57249;SDS011;43102;52.014;-0.680;2022-09-09T05:14:01;10.10;;;8.20;;
57249;SDS011;43102;52.014;-0.680;2022-09-09T05:15:00;10.10;;;8.20;;
57249;SDS011;43102;52.014;-0.680;2022-09-09T05:16:00;10.10;;;8.20;;
57249;SDS011;43102;52.014;-0.680;2022-09-09T05:17:00;10.10;;;8.20;;
57249;SDS011;43102;52.014;-0.680;2022-09-09T05:18:01;10.10;;;8.20;;
57249;SDS011;43102;52.014;-0.680;2022-09-09T05:19:02;10.10;;;8.20;;
57249;SDS011;43102;52.014;-0.680;2022-09-09T05:20:00;10.10;;;8.20;;
57249;SDS011;43102;52.014;-0.680;2022-09-09T05:21:00;10.10;;;8.20;;
57249;SDS011;43102;52.014;-0.680;2022-09-09T05:22:01;10.10;;;8.20;;
57249;SDS011;43102;52.014;-0.680;2022-09-09T05:23:00;10.10;;;8.20;;
57249;SDS011;43102;52.014;-0.680;2022-09-09T05:24:00;10.10;;;8.20;;
57249;SDS011;43102;52.014;-0.680;2022-09-09T05:25:01;10.10;;;8.20;;
57249;SDS011;43102;52.014;-0.680;2022-09-09T05:26:00;10.10;;;8.20;;
57249;SDS011;43102;52.014;-0.680;2022-09-09T05:27:02;10.10;;;8.20;;
57249;SDS011;43102;52.014;-0.680;2022-09-09T05:28:00;10.10;;;8.20;;
57249;SDS011;43102;52.014;-0.680;2022-09-09T05:29:01;10.10;;;8.20;;
57249;SDS011;43102;52.014;-0.680;2022-09-09T05:30:00;10.10;;;8.20;;
57249;SDS011;43102;52.014;-0.680;2022-09-09T05:31:05;10.10;;;8.20;;
57249;SDS011;43102;52.014;-0.680;2022-09-09T05:32:00;10.10;;;8.20;;
57249;SDS011;43102;52.014;-0.680;2022-09-09T05:33:00;10.10;;;8.20;;
57249;SDS011;43102;52.014;-0.680;2022-09-09T05:34:00;10.10;;;8.20;;
57249;SDS011;43102;52.014;-0.680;2022-09-09T05:35:01;10.10;;;8.20;;
57249;SDS011;43102;52.014;-0.680;2022-09-09T05:36:04;10.10;;;8.20;;
57249;SDS011;43102;52.014;-0.680;2022-09-09T05:37:00;10.10;;;8.20;;
57249;SDS011;43102;52.014;-0.680;2022-09-09T05:38:00;10.10;;;8.20;;
57249;SDS011;43102;52.014;-0.680;2022-09-09T05:39:01;10.10;;;8.20;;
57249;SDS011;43102;52.014;-0.680;2022-09-09T05:40:01;10.10;;;8.20;;
57249;SDS011;43102;52.014;-0.680;2022-09-09T05:41:02;10.10;;;8.20;;
57249;SDS011;43102;52.014;-0.680;2022-09-09T05:42:01;10.10;;;8.20;;
57249;SDS011;43102;52.014;-0.680;2022-09-09T05:43:00;13.20;;;8.30;;
57249;SDS011;43102;52.014;-0.680;2022-09-09T05:44:01;13.20;;;8.30;;
57249;SDS011;43102;52.014;-0.680;2022-09-09T05:45:00;13.20;;;8.30;;
57249;SDS011;43102;52.014;-0.680;2022-09-09T05:46:02;13.20;;;8.30;;
57249;SDS011;43102;52.014;-0.680;2022-09-09T05:47:00;13.20;;;8.30;;
57249;SDS011;43102;52.014;-0.680;2022-09-09T05:48:01;13.20;;;8.30;;
57249;SDS011;43102;52.014;-0.680;2022-09-09T05:49:02;13.20;;;8.30;;
57249;SDS011;43102;52.014;-0.680;2022-09-09T05:50:00;13.20;;;8.30;;
57249;SDS011;43102;52.014;-0.680;2022-09-09T05:51:01;13.20;;;8.30;;
57249;SDS011;43102;52.014;-0.680;2022-09-09T05:52:00;13.20;;;8.30;;
57249;SDS011;43102;52.014;-0.680;2022-09-09T05:53:00;13.20;;;8.30;;
57249;SDS011;43102;52.014;-0.680;2022-09-09T05:54:00;13.20;;;8.30;;
57249;SDS011;43102;52.014;-0.680;2022-09-09T05:55:00;13.20;;;8.30;;
57249;SDS011;43102;52.014;-0.680;2022-09-09T05:56:05;13.20;;;8.30;;
57249;SDS011;43102;52.014;-0.680;2022-09-09T05:57:00;13.20;;;8.30;;
57249;SDS011;43102;52.014;-0.680;2022-09-09T05:58:01;13.20;;;8.30;;
57249;SDS011;43102;52.014;-0.680;2022-09-09T05:59:00;13.20;;;8.30;;
57249;SDS011;43102;52.014;-0.680;2022-09-09T06:00:00;13.20;;;8.30;;
57249;SDS011;43102;52.014;-0.680;2022-09-09T06:01:06;13.20;;;8.30;;
57249;SDS011;43102;52.014;-0.680;2022-09-09T06:02:00;13.20;;;8.30;;
57249;SDS011;43102;52.014;-0.680;2022-09-09T06:03:00;13.20;;;8.30;;
57249;SDS011;43102;52.014;-0.680;2022-09-09T06:04:00;13.20;;;8.30;;
57249;SDS011;43102;52.014;-0.680;2022-09-09T06:05:01;13.20;;;8.30;;
57249;SDS011;43102;52.014;-0.680;2022-09-09T06:06:02;13.20;;;8.30;;
57249;SDS011;43102;52.014;-0.680;2022-09-09T06:07:01;13.20;;;8.30;;
57249;SDS011;43102;52.014;-0.680;2022-09-09T06:08:00;13.20;;;8.30;;
57249;SDS011;43102;52.014;-0.680;2022-09-09T06:09:00;13.20;;;8.30;;
57249;SDS011;43102;52.014;-0.680;2022-09-09T06:10:00;13.20;;;8.30;;
57249;SDS011;43102;52.014;-0.680;2022-09-09T06:11:03;13.20;;;8.30;;
57249;SDS011;43102;52.014;-0.680;2022-09-09T06:12:00;13.20;;;8.30;;
57249;SDS011;43102;52.014;-0.680;2022-09-09T06:13:00;13.30;;;8.50;;
57249;SDS011;43102;52.014;-0.680;2022-09-09T06:14:00;13.30;;;8.50;;
57249;SDS011;43102;52.014;-0.680;2022-09-09T06:15:00;13.30;;;8.50;;
57249;SDS011;43102;52.014;-0.680;2022-09-09T06:16:00;13.30;;;8.50;;
57249;SDS011;43102;52.014;-0.680;2022-09-09T06:17:00;13.30;;;8.50;;
57249;SDS011;43102;52.014;-0.680;2022-09-09T06:18:00;13.30;;;8.50;;
57249;SDS011;43102;52.014;-0.680;2022-09-09T06:19:01;13.30;;;8.50;;
57249;SDS011;43102;52.014;-0.680;2022-09-09T06:20:00;13.30;;;8.50;;
57249;SDS011;43102;52.014;-0.680;2022-09-09T06:21:02;13.30;;;8.50;;
57249;SDS011;43102;52.014;-0.680;2022-09-09T06:22:00;13.30;;;8.50;;
57249;SDS011;43102;52.014;-0.680;2022-09-09T06:23:00;13.30;;;8.50;;
57249;SDS011;43102;52.014;-0.680;2022-09-09T06:24:01;13.30;;;8.50;;
57249;SDS011;43102;52.014;-0.680;2022-09-09T06:25:01;13.30;;;8.50;;
57249;SDS011;43102;52.014;-0.680;2022-09-09T06:26:09;13.30;;;8.50;;
57249;SDS011;43102;52.014;-0.680;2022-09-09T06:27:00;13.30;;;8.50;;
57249;SDS011;43102;52.014;-0.680;2022-09-09T06:28:00;13.30;;;8.50;;
57249;SDS011;43102;52.014;-0.680;2022-09-09T06:29:02;13.30;;;8.50;;